PDT,Max TemperatureF,Mean TemperatureF,Min TemperatureF,Max Dew PointF,MeanDew PointF,Min DewpointF,Max Humidity, Mean Humidity, Min Humidity, Max Sea Level PressureIn, Mean Sea Level PressureIn, Min Sea Level PressureIn, Max VisibilityMiles, Mean VisibilityMiles, Min VisibilityMiles, Max Wind SpeedMPH, Mean Wind SpeedMPH, Max Gust SpeedMPH,PrecipitationIn, CloudCover, Events, WindDirDegrees
2012-10-1,73,58,42,59,50,41,100,72,44,30.30,30.23,30.18,10,10,3,18,7,23,0.02,3,,333
2012-10-2,59,55,51,49,45,38,83,70,57,30.22,30.21,30.18,10,10,9,22,12,26,0.01,5,,325
2012-10-3,69,53,36,41,37,33,100,64,28,30.28,30.23,30.18,10,10,2,24,10,28,0.00,0,,64
2012-10-4,72,57,41,43,38,33,82,54,25,30.21,30.18,30.16,10,10,10,15,7,18,0.00,0,,65
2012-10-5,73,58,42,42,37,31,83,52,20,30.20,30.16,30.11,10,10,8,21,10,25,0.00,0,,75
2012-10-6,74,57,40,40,36,29,79,49,19,30.16,30.11,30.04,10,10,7,21,8,25,0.00,0,,80
2012-10-7,77,59,40,43,39,32,82,52,21,30.04,29.98,29.92,10,10,10,12,6,13,0.00,0,,64
2012-10-8,55,48,40,47,43,27,100,73,45,30.08,30.00,29.94,10,9,5,17,6,20,0.02,3,,233
2012-10-9,59,53,46,47,45,42,93,80,67,30.12,30.08,30.03,10,10,8,10,4,14,0.01,5,,148
2012-10-10,60,51,42,48,46,39,100,80,60,30.05,30.02,29.96,10,7,1,14,4,16,0.00,5,,148
2012-10-11,54,48,41,47,45,40,100,89,77,29.96,29.91,29.84,10,10,9,12,4,15,0.00,7,,185
2012-10-12,55,53,50,54,50,47,96,90,83,30.03,29.93,29.86,10,10,10,17,4,26,0.93,8,Rain,140
2012-10-13,58,57,55,56,55,53,93,93,93,30.18,30.13,30.03,10,10,10,21,13,32,0.47,8,Rain,193
2012-10-14,60,59,57,57,56,55,100,94,87,30.10,29.97,29.91,10,10,10,28,16,41,0.82,8,Rain,195
2012-10-15,60,58,55,59,57,55,100,97,93,29.94,29.80,29.64,10,10,10,33,10,54,1.12,8,Rain-Thunderstorm,197
2012-10-16,59,55,50,54,49,44,100,84,67,30.31,30.08,29.75,10,10,7,23,9,30,0.04,6,Rain,256
2012-10-17,60,50,40,50,44,41,100,81,62,30.32,30.27,30.17,10,6,0,9,4,14,0.00,3,Fog,89
2012-10-18,64,54,43,54,47,41,96,76,56,30.19,29.98,29.86,10,9,3,14,5,21,0.10,3,Rain,134
2012-10-19,58,55,52,56,53,45,100,93,86,29.90,29.86,29.81,10,6,1,21,8,29,0.15,8,Rain,243
2012-10-20,53,49,44,45,42,39,93,78,63,29.94,29.91,29.88,10,9,4,28,8,36,0.17,6,Rain-Thunderstorm,220
2012-10-21,48,45,41,44,42,39,96,89,82,29.87,29.82,29.70,10,9,4,15,6,35,0.16,7,Rain,120
2012-10-22,49,46,43,45,43,39,96,91,86,29.68,29.58,29.54,10,8,1,17,6,24,0.27,8,Rain,158
2012-10-23,50,45,40,44,41,38,96,88,80,29.82,29.78,29.67,10,9,4,17,6,43,0.30,7,Rain,142
2012-10-24,49,45,40,45,42,39,100,93,86,30.15,29.95,29.81,10,9,3,10,4,13,0.30,7,Rain,135
2012-10-25,54,44,34,45,41,33,100,86,71,30.38,30.31,30.17,10,9,6,8,3,13,0.00,3,,107
2012-10-26,56,51,46,54,48,42,93,84,74,30.25,30.12,30.06,10,7,1,15,7,23,0.09,8,Rain,150
2012-10-27,58,54,50,57,53,48,100,97,93,30.09,29.92,29.80,10,4,1,25,12,38,1.65,8,Rain,187
2012-10-28,57,56,54,58,55,53,100,97,93,29.96,29.89,29.77,10,3,0,12,5,17,0.48,8,Fog-Rain,215
2012-10-29,58,57,55,58,56,54,100,100,100,30.04,29.94,29.78,10,3,1,25,14,38,0.14,8,Rain,204
2012-10-30,59,57,54,59,57,54,100,100,100,29.93,29.82,29.74,10,5,1,25,11,38,1.81,8,Rain,189
2012-10-31,58,56,54,56,54,51,100,93,86,29.74,29.65,29.60,10,7,2,26,14,40,1.00,8,Rain,182